Thomas, Oklahoma
Current Conditions -  °F | °C
As of 8:15 AM on Sunday 21 Dec 2014 (Local Time) from KOJA Reporting Station
Haze Haze  
Wind Chill: 33°   Ceiling: 500
Heat Index: 41°   Visibility: 4mi
Dew Point: 39°   Wind: 14mph
Humidity: 93%   Direction: 170°S
Pressure: 29.96"   Gusts: 20mph
Location:  35.74°N, 98.75°W
Report Text: KOJA 211415Z AUTO 17012G17KT 4SM BR OVC005 05/04 A2996 RMK AO2
Loading
Personal Weather Stations






























Interactive Weather Map New forecast layout! Learn more

10-Day Weather Forecast

Advertisements
Track Severe Weather on mobile